Time;durP1;ratioP1;P1;durP2;ratioP2;P2;SDS_P1;SDS_P2;PMS_P1;PMS_P2;Temp;Humidity;BMP_temperature;BMP_pressure;BME280_temperature;BME280_humidity;BME280_pressure;Samples;Min_cycle;Max_cycle;Signal;HPM_P1;HPM_P2
2022/01/23 00:00:39;;;;;;;15.77;6.20;;;;;;;;;;5113163;28;20476;-79
2022/01/23 00:03:10;;;;;;;17.42;6.57;;;;;;;;;;5113281;28;20465;-80
2022/01/23 00:05:40;;;;;;;17.52;6.43;;;;;;;;;;5113241;28;20112;-78
2022/01/23 00:08:07;;;;;;;12.10;5.43;;;;;;;;;;5078045;28;20105;-80
2022/01/23 00:10:33;;;;;;;15.32;6.07;;;;;;;;;;5078206;28;20093;-79
2022/01/23 00:18:20;;;;;;;14.05;6.07;;;;;;;;;;5112929;28;20050;-78
2022/01/23 00:20:47;;;;;;;15.40;6.60;;;;;;;;;;5112784;28;20403;-78
2022/01/23 00:23:28;;;;;;;13.65;5.97;;;;;;;;;;5112922;28;20123;-79
2022/01/23 00:31:25;;;;;;;17.50;6.85;;;;;;;;;;5094733;28;20112;-80
2022/01/23 00:33:54;;;;;;;13.15;6.40;;;;;;;;;;5113044;28;20039;-79
2022/01/23 00:36:20;;;;;;;13.45;6.00;;;;;;;;;;5112758;28;20089;-79
2022/01/23 00:38:46;;;;;;;13.63;5.60;;;;;;;;;;5112855;28;20042;-79
2022/01/23 00:41:12;;;;;;;11.90;5.93;;;;;;;;;;5097764;28;20047;-79
2022/01/23 00:43:42;;;;;;;16.35;6.25;;;;;;;;;;5116969;28;20057;-79
2022/01/23 00:46:22;;;;;;;13.15;5.60;;;;;;;;;;5117123;28;20044;-79
2022/01/23 00:49:24;;;;;;;11.52;5.72;;;;;;;;;;5116897;28;20047;-79
2022/01/23 00:51:37;;;;;;;13.13;5.38;;;;;;;;;;5116090;28;20066;-78
2022/01/23 00:54:05;;;;;;;15.05;6.22;;;;;;;;;;5116742;28;20127;-78
2022/01/23 00:56:32;;;;;;;12.85;6.28;;;;;;;;;;5117034;28;20039;-80
2022/01/23 00:58:59;;;;;;;12.63;6.20;;;;;;;;;;5116904;28;20054;-79
2022/01/23 01:01:25;;;;;;;14.73;6.13;;;;;;;;;;5116762;28;20063;-79
2022/01/23 01:03:51;;;;;;;15.60;6.55;;;;;;;;;;5116827;28;20054;-79
2022/01/23 01:06:17;;;;;;;16.70;6.35;;;;;;;;;;5116727;28;20480;-80
2022/01/23 01:08:46;;;;;;;11.55;5.70;;;;;;;;;;5098516;28;20054;-79
2022/01/23 01:14:07;;;;;;;16.02;6.50;;;;;;;;;;5116546;28;20054;-79
2022/01/23 01:30:53;;;;;;;12.93;6.03;;;;;;;;;;5116300;28;20397;-80
2022/01/23 01:36:07;;;;;;;15.20;6.47;;;;;;;;;;5097824;28;20055;-80
2022/01/23 01:38:25;;;;;;;15.80;6.53;;;;;;;;;;5115148;28;20389;-80
2022/01/23 01:40:52;;;;;;;12.73;5.90;;;;;;;;;;5097763;28;20082;-80
2022/01/23 01:43:18;;;;;;;17.63;6.63;;;;;;;;;;5115960;28;20054;-80
2022/01/23 01:45:44;;;;;;;16.48;6.35;;;;;;;;;;5115675;28;20069;-79
2022/01/23 01:48:13;;;;;;;14.50;6.25;;;;;;;;;;5097555;28;20044;-79
2022/01/23 01:50:44;;;;;;;13.98;6.13;;;;;;;;;;5115504;28;20407;-80
2022/01/23 01:53:11;;;;;;;;;;;;;;;;;;5098043;28;20044;-78
2022/01/23 01:55:43;;;;;;;11.57;5.88;;;;;;;;;;5115712;28;20006;-80
2022/01/23 01:58:31;;;;;;;;;;;;;;;;;;5116044;28;20043;-80
2022/01/23 02:00:58;;;;;;;15.63;5.57;;;;;;;;;;5115279;28;19922;-79
2022/01/23 02:08:37;;;;;;;9.05;5.57;;;;;;;;;;5115284;28;20048;-79
2022/01/23 02:11:16;;;;;;;16.60;6.35;;;;;;;;;;5115307;28;20126;-80
2022/01/23 02:54:26;;;;;;;15.55;5.70;;;;;;;;;;5096672;28;20048;-79
2022/01/23 02:56:56;;;;;;;12.27;6.18;;;;;;;;;;5114395;28;20039;-79
2022/01/23 02:59:31;;;;;;;15.02;5.60;;;;;;;;;;5114519;28;20048;-79
2022/01/23 03:04:40;;;;;;;13.20;6.22;;;;;;;;;;5114149;28;20047;-79
2022/01/23 03:12:28;;;;;;;16.75;6.40;;;;;;;;;;5114232;28;20077;-79
2022/01/23 03:15:02;;;;;;;14.13;6.72;;;;;;;;;;5113960;28;20052;-79
2022/01/23 03:31:21;;;;;;;12.15;6.05;;;;;;;;;;5113852;28;20054;-79
2022/01/23 03:33:47;;;;;;;15.18;6.57;;;;;;;;;;5113703;28;20077;-78
2022/01/23 03:36:14;;;;;;;14.02;6.85;;;;;;;;;;5113565;28;20545;-79
2022/01/23 03:38:40;;;;;;;16.48;6.50;;;;;;;;;;5095606;28;20050;-80
2022/01/23 03:41:06;;;;;;;14.50;6.93;;;;;;;;;;5113706;28;20043;-79
2022/01/23 03:43:35;;;;;;;19.52;7.20;;;;;;;;;;5095570;28;20043;-80
2022/01/23 03:51:38;;;;;;;14.75;6.75;;;;;;;;;;5113508;28;20043;-79
2022/01/23 03:54:05;;;;;;;14.20;6.57;;;;;;;;;;5113564;28;20047;-79
2022/01/23 03:56:31;;;;;;;16.17;7.15;;;;;;;;;;5113682;28;20047;-79
2022/01/23 03:58:58;;;;;;;14.77;7.28;;;;;;;;;;5113181;28;20047;-79
2022/01/23 04:01:24;;;;;;;12.20;6.50;;;;;;;;;;5113300;28;20070;-79
2022/01/23 04:03:53;;;;;;;18.23;7.18;;;;;;;;;;5094990;28;20086;-78
2022/01/23 04:06:19;;;;;;;15.77;6.72;;;;;;;;;;5113371;28;20048;-79
2022/01/23 04:08:45;;;;;;;12.55;6.45;;;;;;;;;;5113132;28;20100;-79
2022/01/23 04:11:12;;;;;;;14.75;7.10;;;;;;;;;;5113116;28;20461;-79
2022/01/23 05:00:01;;;;;;;17.13;8.23;;;;;;;;;;5039258;28;20081;-80
2022/01/23 05:05:11;;;;;;;15.45;7.40;;;;;;;;;;5112515;28;20043;-79
2022/01/23 05:07:40;;;;;;;16.88;8.05;;;;;;;;;;5112567;28;20544;-78
2022/01/23 05:10:06;;;;;;;22.15;9.32;;;;;;;;;;5094955;28;20491;-79
2022/01/23 05:12:34;;;;;;;18.08;8.63;;;;;;;;;;5077418;28;20058;-79
2022/01/23 05:15:00;;;;;;;17.27;8.43;;;;;;;;;;5112352;28;20063;-79
2022/01/23 05:17:26;;;;;;;18.58;8.13;;;;;;;;;;5112516;28;20375;-79
2022/01/23 05:19:53;;;;;;;19.60;8.65;;;;;;;;;;5112585;28;20126;-79
2022/01/23 05:25:22;;;;;;;;;;;;;;;;;;5112697;28;20048;-80
2022/01/23 05:27:52;;;;;;;17.55;7.90;;;;;;;;;;5097848;28;20021;-79
2022/01/23 05:30:18;;;;;;;17.67;7.95;;;;;;;;;;5116324;28;20040;-79
2022/01/23 05:32:44;;;;;;;16.10;8.43;;;;;;;;;;5116216;28;20430;-79
2022/01/23 05:35:12;;;;;;;14.40;7.72;;;;;;;;;;5115933;28;20031;-80
2022/01/23 05:37:39;;;;;;;18.08;8.50;;;;;;;;;;5116062;28;20046;-79
2022/01/23 05:40:06;;;;;;;20.02;8.27;;;;;;;;;;5097758;28;20069;-79
2022/01/23 05:42:32;;;;;;;17.65;8.30;;;;;;;;;;5115966;28;20492;-79
2022/01/23 05:44:59;;;;;;;18.23;8.43;;;;;;;;;;5115845;28;20043;-80
2022/01/23 05:47:25;;;;;;;19.35;8.65;;;;;;;;;;5115897;28;20050;-79
2022/01/23 05:49:51;;;;;;;17.20;7.90;;;;;;;;;;5115691;28;20126;-79
2022/01/23 05:52:17;;;;;;;16.73;8.50;;;;;;;;;;5116109;28;20111;-80
2022/01/23 05:54:43;;;;;;;15.23;8.57;;;;;;;;;;5115711;28;20099;-79
2022/01/23 05:57:09;;;;;;;14.23;8.13;;;;;;;;;;5115827;28;20396;-79
2022/01/23 05:59:35;;;;;;;18.35;8.05;;;;;;;;;;5115808;28;20042;-80
2022/01/23 06:02:01;;;;;;;16.90;8.85;;;;;;;;;;5115640;28;20118;-79
2022/01/23 06:04:28;;;;;;;16.23;8.40;;;;;;;;;;5097298;28;20378;-80
2022/01/23 06:06:56;;;;;;;17.60;8.25;;;;;;;;;;5097334;28;20044;-78
2022/01/23 06:09:22;;;;;;;18.02;8.55;;;;;;;;;;5115605;28;20044;-79
2022/01/23 06:11:49;;;;;;;16.73;7.95;;;;;;;;;;5115074;28;20081;-80
2022/01/23 06:14:15;;;;;;;18.35;8.27;;;;;;;;;;5115088;28;20087;-79
2022/01/23 06:16:41;;;;;;;14.77;7.15;;;;;;;;;;5115057;28;20065;-79
2022/01/23 06:19:07;;;;;;;16.90;9.38;;;;;;;;;;5114985;28;20044;-79
2022/01/23 06:21:34;;;;;;;16.50;9.88;;;;;;;;;;5115171;28;20054;-79
2022/01/23 06:24:09;;;;;;;19.95;8.63;;;;;;;;;;5115203;28;20079;-80
2022/01/23 06:26:45;;;;;;;16.85;8.07;;;;;;;;;;5115590;28;20040;-79
2022/01/23 06:29:14;;;;;;;13.73;7.85;;;;;;;;;;5114990;28;20044;-80
2022/01/23 06:31:41;;;;;;;18.55;8.00;;;;;;;;;;5114958;28;20043;-79
2022/01/23 06:34:08;;;;;;;16.63;7.75;;;;;;;;;;5114988;28;20082;-79
2022/01/23 06:36:37;;;;;;;15.85;7.57;;;;;;;;;;5115180;28;20044;-79
2022/01/23 06:39:05;;;;;;;13.80;7.60;;;;;;;;;;5114116;28;20131;-80
2022/01/23 06:41:31;;;;;;;17.17;7.57;;;;;;;;;;5114743;28;20070;-79
2022/01/23 06:43:58;;;;;;;15.15;7.78;;;;;;;;;;5114782;28;20039;-79
2022/01/23 06:46:24;;;;;;;13.38;7.30;;;;;;;;;;5114909;28;20039;-79
2022/01/23 06:48:50;;;;;;;14.25;7.13;;;;;;;;;;5114831;28;20065;-80
2022/01/23 06:51:16;;;;;;;13.88;7.38;;;;;;;;;;5096536;28;20048;-80
2022/01/23 06:53:42;;;;;;;12.60;7.72;;;;;;;;;;5114671;28;20065;-79
2022/01/23 06:56:08;;;;;;;11.63;7.30;;;;;;;;;;5114518;28;20096;-79
2022/01/23 06:58:35;;;;;;;14.65;7.97;;;;;;;;;;5114429;28;20124;-79
2022/01/23 07:01:01;;;;;;;16.50;7.78;;;;;;;;;;5095975;28;20127;-79
2022/01/23 07:03:27;;;;;;;15.27;7.85;;;;;;;;;;5114311;28;20130;-79
2022/01/23 07:05:53;;;;;;;13.43;7.38;;;;;;;;;;5114364;28;20101;-79
2022/01/23 07:08:19;;;;;;;17.75;8.20;;;;;;;;;;5114400;28;20035;-80
2022/01/23 07:10:45;;;;;;;15.52;8.10;;;;;;;;;;5114194;28;20113;-79
2022/01/23 07:13:11;;;;;;;15.57;8.02;;;;;;;;;;5095779;28;20052;-79
2022/01/23 07:15:38;;;;;;;14.27;7.43;;;;;;;;;;5114235;28;20044;-79
2022/01/23 07:18:04;;;;;;;13.40;7.10;;;;;;;;;;5114080;28;20088;-79
2022/01/23 07:20:30;;;;;;;11.93;7.47;;;;;;;;;;5114065;28;20510;-78
2022/01/23 07:22:56;;;;;;;14.80;7.70;;;;;;;;;;5096019;28;20040;-79
2022/01/23 07:25:22;;;;;;;14.35;7.82;;;;;;;;;;5113975;28;20044;-79
2022/01/23 07:27:52;;;;;;;15.30;6.97;;;;;;;;;;5113695;28;20079;-79
2022/01/23 07:32:47;;;;;;;16.88;7.72;;;;;;;;;;5113128;28;20047;-79
2022/01/23 07:35:14;;;;;;;14.13;8.18;;;;;;;;;;5113068;28;20426;-79
2022/01/23 07:37:40;;;;;;;18.58;7.85;;;;;;;;;;5113505;28;20058;-80
2022/01/23 07:40:06;;;;;;;18.45;8.38;;;;;;;;;;5113491;28;20046;-80
2022/01/23 07:42:34;;;;;;;15.98;8.30;;;;;;;;;;5113120;28;20039;-79
2022/01/23 07:45:01;;;;;;;21.08;8.68;;;;;;;;;;5113461;28;20044;-80
2022/01/23 07:47:27;;;;;;;15.93;8.80;;;;;;;;;;5113564;28;20421;-79
2022/01/23 07:49:53;;;;;;;14.57;8.25;;;;;;;;;;5113173;28;20136;-79
2022/01/23 07:52:19;;;;;;;14.98;8.45;;;;;;;;;;5113128;28;20126;-79
2022/01/23 07:54:46;;;;;;;19.33;9.15;;;;;;;;;;5095286;28;20047;-80
2022/01/23 07:57:12;;;;;;;13.13;8.52;;;;;;;;;;5113139;28;20514;-78
2022/01/23 07:59:38;;;;;;;16.08;8.77;;;;;;;;;;5095273;28;20070;-79
2022/01/23 08:02:05;;;;;;;17.55;8.85;;;;;;;;;;5095160;28;20039;-79
2022/01/23 08:04:31;;;;;;;15.30;8.32;;;;;;;;;;5113267;28;20047;-78
2022/01/23 08:07:10;;;;;;;19.77;8.85;;;;;;;;;;5113539;28;20074;-80
2022/01/23 08:09:36;;;;;;;16.17;8.23;;;;;;;;;;5113122;28;20043;-79
2022/01/23 08:12:04;;;;;;;16.25;8.73;;;;;;;;;;5112844;28;20050;-79
2022/01/23 08:14:30;;;;;;;18.10;9.02;;;;;;;;;;5113563;27;20051;-79
2022/01/23 08:16:56;;;;;;;18.50;8.85;;;;;;;;;;5116194;27;20054;-79
2022/01/23 08:19:22;;;;;;;16.60;9.23;;;;;;;;;;5112702;28;20040;-79
2022/01/23 08:21:49;;;;;;;17.58;9.38;;;;;;;;;;5113131;28;20559;-80
2022/01/23 08:24:15;;;;;;;16.70;9.00;;;;;;;;;;5123721;27;20046;-79
2022/01/23 08:26:41;;;;;;;14.80;8.40;;;;;;;;;;5133621;27;20117;-80
2022/01/23 08:29:09;;;;;;;18.00;8.88;;;;;;;;;;5133205;27;20099;-79
2022/01/23 08:31:35;;;;;;;14.75;8.48;;;;;;;;;;5133532;28;20039;-79
2022/01/23 08:34:01;;;;;;;14.55;9.10;;;;;;;;;;5133397;28;20118;-79
2022/01/23 08:36:29;;;;;;;13.23;8.55;;;;;;;;;;5133360;28;20485;-79
2022/01/23 08:38:58;;;;;;;16.65;9.18;;;;;;;;;;5133470;28;20472;-79
2022/01/23 08:43:51;;;;;;;16.35;8.18;;;;;;;;;;5133611;28;20087;-79
2022/01/23 08:46:18;;;;;;;11.93;6.90;;;;;;;;;;5114943;28;20084;-79
2022/01/23 08:48:44;;;;;;;16.35;8.02;;;;;;;;;;5133168;28;20488;-78
2022/01/23 08:51:11;;;;;;;14.65;7.60;;;;;;;;;;5132870;28;20039;-79
2022/01/23 08:53:37;;;;;;;16.83;8.90;;;;;;;;;;5133373;28;20092;-78
2022/01/23 08:56:04;;;;;;;13.85;7.47;;;;;;;;;;5133148;28;20447;-79
2022/01/23 08:58:30;;;;;;;12.32;8.00;;;;;;;;;;5133131;28;20360;-79
2022/01/23 09:00:56;;;;;;;13.35;7.82;;;;;;;;;;5134111;27;20035;-79
2022/01/23 09:03:22;;;;;;;12.02;6.93;;;;;;;;;;5137233;27;20471;-79
2022/01/23 09:05:49;;;;;;;14.30;7.78;;;;;;;;;;5136921;27;20395;-79
2022/01/23 09:08:15;;;;;;;12.05;7.13;;;;;;;;;;5137082;27;20039;-79
2022/01/23 09:10:52;;;;;;;14.80;7.30;;;;;;;;;;5137362;27;20043;-79
2022/01/23 09:13:39;;;;;;;15.23;7.53;;;;;;;;;;5115240;28;20059;-79
2022/01/23 09:16:06;;;;;;;13.48;7.22;;;;;;;;;;5116378;28;20075;-79
2022/01/23 09:18:33;;;;;;;10.32;6.38;;;;;;;;;;5116629;28;20112;-79
2022/01/23 09:20:59;;;;;;;10.65;5.80;;;;;;;;;;5116395;28;20044;-79
2022/01/23 09:23:25;;;;;;;10.60;5.68;;;;;;;;;;5116486;28;20043;-80
2022/01/23 09:25:51;;;;;;;11.73;6.28;;;;;;;;;;5115167;28;20046;-79
2022/01/23 09:28:19;;;;;;;14.10;6.88;;;;;;;;;;5116384;28;20122;-79
2022/01/23 09:30:49;;;;;;;9.73;5.30;;;;;;;;;;5114636;28;20101;-80
2022/01/23 09:33:15;;;;;;;10.18;5.15;;;;;;;;;;5116207;28;20497;-79
2022/01/23 09:35:41;;;;;;;10.60;5.93;;;;;;;;;;5115970;28;20576;-79
2022/01/23 09:38:07;;;;;;;8.82;5.18;;;;;;;;;;5115964;28;20130;-79
2022/01/23 09:40:34;;;;;;;9.23;5.55;;;;;;;;;;5115013;28;20049;-80
2022/01/23 09:43:08;;;;;;;9.57;5.50;;;;;;;;;;5114958;28;20054;-80
2022/01/23 09:45:34;;;;;;;10.00;5.30;;;;;;;;;;5116139;28;20039;-79
2022/01/23 09:48:01;;;;;;;12.27;5.30;;;;;;;;;;5115966;28;20043;-78
2022/01/23 09:50:27;;;;;;;8.05;4.45;;;;;;;;;;5114627;28;20039;-79
2022/01/23 09:52:54;;;;;;;9.05;5.13;;;;;;;;;;5115657;28;20362;-79
2022/01/23 09:55:21;;;;;;;7.65;3.75;;;;;;;;;;5115647;28;20365;-81
2022/01/23 09:57:48;;;;;;;6.53;3.83;;;;;;;;;;5115432;28;20047;-80
2022/01/23 10:00:16;;;;;;;10.27;4.95;;;;;;;;;;5115668;28;20126;-80
2022/01/23 10:02:42;;;;;;;6.57;4.00;;;;;;;;;;5114540;28;20126;-80
2022/01/23 10:05:09;;;;;;;8.73;4.30;;;;;;;;;;5114268;28;20050;-81
2022/01/23 10:07:39;;;;;;;7.95;4.38;;;;;;;;;;5115656;28;20040;-80
2022/01/23 10:10:11;;;;;;;8.52;4.53;;;;;;;;;;5114288;28;20047;-80
2022/01/23 10:12:41;;;;;;;7.22;4.30;;;;;;;;;;5114753;28;20469;-79
2022/01/23 10:15:08;;;;;;;9.18;4.55;;;;;;;;;;5115294;28;20047;-80
2022/01/23 10:17:34;;;;;;;7.25;4.22;;;;;;;;;;5114389;28;20039;-81
2022/01/23 10:20:01;;;;;;;6.10;3.53;;;;;;;;;;5113835;28;20473;-80
2022/01/23 10:22:27;;;;;;;7.07;4.10;;;;;;;;;;5115081;28;20043;-80
2022/01/23 10:25:03;;;;;;;7.97;4.15;;;;;;;;;;5115108;28;20032;-79
2022/01/23 10:27:30;;;;;;;8.63;4.97;;;;;;;;;;5115119;28;20448;-79
2022/01/23 10:29:57;;;;;;;8.23;5.55;;;;;;;;;;5114927;28;20499;-79
2022/01/23 10:32:24;;;;;;;9.18;6.10;;;;;;;;;;5080187;28;20090;-79
2022/01/23 10:35:00;;;;;;;7.90;4.30;;;;;;;;;;5115009;28;20040;-80
2022/01/23 10:37:26;;;;;;;7.57;4.15;;;;;;;;;;5114837;28;20400;-80
2022/01/23 10:39:53;;;;;;;6.60;3.67;;;;;;;;;;5113709;28;20122;-80
2022/01/23 10:48:01;;;;;;;9.93;4.78;;;;;;;;;;5114350;28;20047;-77
2022/01/23 10:50:28;;;;;;;9.15;4.50;;;;;;;;;;5114562;28;20040;-75
2022/01/23 10:52:59;;;;;;;8.35;4.05;;;;;;;;;;5114722;28;20055;-80
2022/01/23 10:55:27;;;;;;;9.73;3.35;;;;;;;;;;5114222;28;20499;-81
2022/01/23 10:57:56;;;;;;;6.68;3.88;;;;;;;;;;5114464;28;20050;-80
2022/01/23 11:00:34;;;;;;;7.60;3.20;;;;;;;;;;5114289;28;20043;-76
2022/01/23 11:03:02;;;;;;;9.43;3.30;;;;;;;;;;5114330;28;20054;-80
2022/01/23 11:05:36;;;;;;;6.40;3.05;;;;;;;;;;5114614;28;20470;-80
2022/01/23 11:08:02;;;;;;;7.47;2.95;;;;;;;;;;5113059;28;20058;-80
2022/01/23 11:10:29;;;;;;;5.55;2.60;;;;;;;;;;5114305;28;20044;-79
2022/01/23 11:18:35;;;;;;;5.45;2.30;;;;;;;;;;5112725;28;20203;-80
2022/01/23 11:21:13;;;;;;;7.03;2.60;;;;;;;;;;5112737;28;20039;-80
2022/01/23 11:23:40;;;;;;;6.47;2.65;;;;;;;;;;5113754;28;20084;-80
2022/01/23 11:26:08;;;;;;;6.80;2.58;;;;;;;;;;5112608;28;20552;-80
2022/01/23 11:28:39;;;;;;;6.82;2.45;;;;;;;;;;5113937;28;20389;-79
2022/01/23 11:31:11;;;;;;;5.60;2.00;;;;;;;;;;5113802;28;20040;-79
2022/01/23 11:33:37;;;;;;;6.88;2.40;;;;;;;;;;5112205;28;20374;-80
2022/01/23 11:36:04;;;;;;;8.60;2.35;;;;;;;;;;5114074;28;20042;-80
2022/01/23 11:38:30;;;;;;;8.68;2.10;;;;;;;;;;5113659;28;20362;-80
2022/01/23 11:53:45;;;;;;;4.60;1.63;;;;;;;;;;5113284;28;20499;-80
2022/01/23 11:55:03;;;;;;;6.05;1.80;;;;;;;;;;5113487;28;20040;-80
2022/01/23 11:57:41;;;;;;;6.10;1.98;;;;;;;;;;5113358;28;20039;-80
2022/01/23 12:00:11;;;;;;;4.68;1.30;;;;;;;;;;5113189;28;20043;-80
2022/01/23 12:02:41;;;;;;;4.03;1.10;;;;;;;;;;5113438;28;20040;-80
2022/01/23 12:05:18;;;;;;;7.32;1.17;;;;;;;;;;5113327;28;20043;-80
2022/01/23 12:07:45;;;;;;;4.10;1.00;;;;;;;;;;5113418;28;20047;-80
2022/01/23 12:10:29;;;;;;;5.70;1.58;;;;;;;;;;5113060;28;20039;-80
2022/01/23 12:13:21;;;;;;;5.25;1.30;;;;;;;;;;5111544;28;20051;-80
2022/01/23 12:18:41;;;;;;;5.57;2.25;;;;;;;;;;5111824;28;20093;-80
2022/01/23 12:21:26;;;;;;;3.95;1.52;;;;;;;;;;5112990;28;20043;-79
2022/01/23 12:24:05;;;;;;;3.75;1.45;;;;;;;;;;5111643;28;20047;-79
2022/01/23 12:26:31;;;;;;;4.65;1.35;;;;;;;;;;5113144;28;20440;-79
2022/01/23 12:29:11;;;;;;;5.80;1.90;;;;;;;;;;5112019;28;20044;-78
2022/01/23 12:31:37;;;;;;;4.88;2.45;;;;;;;;;;5111811;28;20472;-79
2022/01/23 12:34:04;;;;;;;4.15;2.08;;;;;;;;;;5111470;28;20130;-78
2022/01/23 12:36:32;;;;;;;5.50;2.17;;;;;;;;;;5111810;28;20551;-79
2022/01/23 12:39:15;;;;;;;5.35;1.90;;;;;;;;;;5113114;28;20044;-80
2022/01/23 12:41:47;;;;;;;5.00;2.00;;;;;;;;;;5112787;28;20122;-80
2022/01/23 12:44:26;;;;;;;5.68;2.00;;;;;;;;;;5112716;28;20040;-79
2022/01/23 12:47:01;;;;;;;6.53;1.98;;;;;;;;;;5112899;28;20043;-79
2022/01/23 12:49:29;;;;;;;4.63;1.75;;;;;;;;;;5112812;28;20052;-79
2022/01/23 12:51:55;;;;;;;3.90;1.65;;;;;;;;;;5103759;28;20059;-79
2022/01/23 12:54:26;;;;;;;4.75;1.88;;;;;;;;;;5111502;28;20392;-79
2022/01/23 12:56:52;;;;;;;9.52;2.30;;;;;;;;;;5112532;28;20044;-79
2022/01/23 12:59:27;;;;;;;5.78;2.28;;;;;;;;;;5112380;28;20050;-80
2022/01/23 13:02:00;;;;;;;5.38;1.92;;;;;;;;;;5112740;28;20392;-79
2022/01/23 13:04:31;;;;;;;5.28;3.45;;;;;;;;;;5112805;28;20039;-80
2022/01/23 13:07:04;;;;;;;6.55;1.90;;;;;;;;;;5112603;28;20130;-80
2022/01/23 13:09:51;;;;;;;3.70;1.65;;;;;;;;;;5112488;28;20650;-79
2022/01/23 13:26:27;;;;;;;4.95;1.98;;;;;;;;;;5112285;28;20043;-79
2022/01/23 13:31:43;;;;;;;5.45;2.00;;;;;;;;;;5111455;28;20096;-79
2022/01/23 13:34:22;;;;;;;5.20;1.90;;;;;;;;;;5112340;28;20066;-79
2022/01/23 13:37:00;;;;;;;5.72;1.90;;;;;;;;;;5112481;28;20112;-79
2022/01/23 13:39:29;;;;;;;4.75;1.75;;;;;;;;;;5112301;28;20039;-80
2022/01/23 13:42:04;;;;;;;5.22;1.90;;;;;;;;;;5112256;28;20131;-80
2022/01/23 13:51:14;;;;;;;4.43;1.85;;;;;;;;;;5136242;27;20126;-79
2022/01/23 13:53:10;;;;;;;4.35;1.70;;;;;;;;;;5135456;27;20492;-79
2022/01/23 13:58:41;;;;;;;5.10;2.20;;;;;;;;;;5119081;27;20093;-79
2022/01/23 14:01:34;;;;;;;4.65;1.52;;;;;;;;;;5135841;27;20046;-80
2022/01/23 14:04:01;;;;;;;6.15;1.83;;;;;;;;;;5136124;27;20047;-80
2022/01/23 14:06:27;;;;;;;3.75;1.60;;;;;;;;;;5136185;27;20145;-78
2022/01/23 14:09:01;;;;;;;4.10;1.67;;;;;;;;;;5136073;27;20050;-79
2022/01/23 14:11:28;;;;;;;4.50;1.70;;;;;;;;;;5134941;27;20043;-78
2022/01/23 14:13:54;;;;;;;3.45;1.40;;;;;;;;;;5135664;27;20087;-79
2022/01/23 14:16:27;;;;;;;4.85;1.55;;;;;;;;;;5135757;27;20039;-80
2022/01/23 14:18:53;;;;;;;3.38;1.25;;;;;;;;;;5135658;27;20039;-79
2022/01/23 14:21:22;;;;;;;4.15;1.58;;;;;;;;;;5134771;27;20130;-80
2022/01/23 14:23:55;;;;;;;4.68;1.70;;;;;;;;;;5134697;27;20388;-78
2022/01/23 14:26:22;;;;;;;4.05;1.50;;;;;;;;;;5135688;27;20045;-79
2022/01/23 14:28:50;;;;;;;4.38;1.70;;;;;;;;;;5135816;27;20502;-79
2022/01/23 14:31:23;;;;;;;3.78;1.60;;;;;;;;;;5135438;27;20129;-79
2022/01/23 14:33:53;;;;;;;5.45;2.00;;;;;;;;;;5135582;27;20043;-80
2022/01/23 14:36:19;;;;;;;3.88;1.83;;;;;;;;;;5134273;27;20082;-79
2022/01/23 14:38:56;;;;;;;5.28;2.50;;;;;;;;;;5135248;27;20497;-79
2022/01/23 14:41:23;;;;;;;5.75;1.92;;;;;;;;;;5135537;27;20039;-78
2022/01/23 14:43:49;;;;;;;5.72;1.80;;;;;;;;;;5134410;27;20146;-79
2022/01/23 14:46:15;;;;;;;3.55;1.63;;;;;;;;;;5134391;27;20086;-79
2022/01/23 14:48:48;;;;;;;5.68;1.98;;;;;;;;;;5133995;27;20125;-79
2022/01/23 14:51:18;;;;;;;5.57;2.10;;;;;;;;;;5135262;27;20092;-80
2022/01/23 14:53:45;;;;;;;11.63;6.73;;;;;;;;;;5134951;27;20070;-78
2022/01/23 14:56:13;;;;;;;10.60;5.82;;;;;;;;;;5135409;27;20039;-79
2022/01/23 14:58:39;;;;;;;21.58;11.27;;;;;;;;;;5134245;27;20050;-79
2022/01/23 15:01:10;;;;;;;10.48;5.80;;;;;;;;;;5134003;27;20043;-79
2022/01/23 15:03:37;;;;;;;7.10;3.53;;;;;;;;;;5134994;27;20122;-80
2022/01/23 15:06:03;;;;;;;7.25;3.83;;;;;;;;;;5134827;27;20089;-79
2022/01/23 15:08:30;;;;;;;6.70;3.83;;;;;;;;;;5134796;27;20043;-79
2022/01/23 15:10:58;;;;;;;6.07;3.33;;;;;;;;;;5134908;27;20043;-79
2022/01/23 15:13:24;;;;;;;6.18;2.67;;;;;;;;;;5133644;27;20051;-80
2022/01/23 15:15:52;;;;;;;5.80;3.40;;;;;;;;;;5134535;27;20043;-79
2022/01/23 15:18:18;;;;;;;5.32;3.00;;;;;;;;;;5133362;27;20039;-79
2022/01/23 15:20:44;;;;;;;5.32;2.88;;;;;;;;;;5133336;27;20088;-79
2022/01/23 15:23:11;;;;;;;6.90;3.65;;;;;;;;;;5133078;27;20039;-78
2022/01/23 15:25:38;;;;;;;6.68;3.70;;;;;;;;;;5134658;27;20400;-79
2022/01/23 15:28:04;;;;;;;5.47;2.83;;;;;;;;;;5133317;27;20126;-79
2022/01/23 15:30:30;;;;;;;5.40;2.15;;;;;;;;;;5134418;27;20122;-79
2022/01/23 15:32:57;;;;;;;5.10;2.05;;;;;;;;;;5134351;27;20097;-79
2022/01/23 15:35:25;;;;;;;5.15;2.30;;;;;;;;;;5133091;27;20039;-79
2022/01/23 15:37:51;;;;;;;4.80;2.25;;;;;;;;;;5133181;27;20122;-79
2022/01/23 15:40:21;;;;;;;4.97;2.42;;;;;;;;;;5134348;27;20084;-79
2022/01/23 15:42:49;;;;;;;5.35;2.83;;;;;;;;;;5133811;27;20050;-80
2022/01/23 15:45:15;;;;;;;4.97;2.80;;;;;;;;;;5133972;27;20641;-80
2022/01/23 15:47:41;;;;;;;5.63;3.58;;;;;;;;;;5134162;27;20049;-80
2022/01/23 15:50:09;;;;;;;4.97;2.92;;;;;;;;;;5133985;27;20039;-80
2022/01/23 15:52:35;;;;;;;5.65;2.47;;;;;;;;;;5134244;27;20087;-80
2022/01/23 15:55:01;;;;;;;5.13;2.22;;;;;;;;;;5134108;27;20126;-79
2022/01/23 15:57:28;;;;;;;5.85;2.47;;;;;;;;;;5132735;27;20121;-78
2022/01/23 15:59:54;;;;;;;4.72;2.00;;;;;;;;;;5133869;27;20084;-78
2022/01/23 16:02:20;;;;;;;4.53;2.10;;;;;;;;;;5115633;27;20078;-79
2022/01/23 16:04:46;;;;;;;6.75;2.60;;;;;;;;;;5133898;27;20046;-79
2022/01/23 16:07:16;;;;;;;5.60;2.30;;;;;;;;;;5133885;27;20046;-79
2022/01/23 16:09:43;;;;;;;6.65;3.13;;;;;;;;;;5132585;27;20523;-78
2022/01/23 16:12:09;;;;;;;6.05;3.33;;;;;;;;;;5132468;27;20089;-79
2022/01/23 16:14:36;;;;;;;5.95;3.25;;;;;;;;;;5148803;27;20058;-79
2022/01/23 16:17:02;;;;;;;6.22;3.22;;;;;;;;;;5154244;27;20471;-80
2022/01/23 16:19:28;;;;;;;5.60;2.90;;;;;;;;;;5154546;27;20046;-80
2022/01/23 16:21:55;;;;;;;4.93;2.42;;;;;;;;;;5154287;27;20376;-80
2022/01/23 16:24:22;;;;;;;6.15;3.20;;;;;;;;;;5154402;27;20039;-79
2022/01/23 16:26:49;;;;;;;6.53;3.83;;;;;;;;;;5154217;27;20499;-79
2022/01/23 16:29:15;;;;;;;5.78;3.50;;;;;;;;;;5154261;27;20039;-79
2022/01/23 16:31:41;;;;;;;6.20;3.47;;;;;;;;;;5154118;27;20395;-78
2022/01/23 16:34:08;;;;;;;6.30;3.83;;;;;;;;;;5136086;27;20118;-79
2022/01/23 16:36:35;;;;;;;5.90;2.70;;;;;;;;;;5154175;27;20492;-80
2022/01/23 16:39:01;;;;;;;6.70;2.95;;;;;;;;;;5154101;27;20094;-78
2022/01/23 16:41:27;;;;;;;8.32;4.20;;;;;;;;;;5154211;27;20042;-78
2022/01/23 16:43:54;;;;;;;7.13;3.80;;;;;;;;;;5154014;27;20046;-79
2022/01/23 16:46:21;;;;;;;8.02;4.32;;;;;;;;;;5153917;27;20068;-79
2022/01/23 16:48:47;;;;;;;8.43;4.75;;;;;;;;;;5153983;27;20117;-79
2022/01/23 16:51:13;;;;;;;8.10;4.40;;;;;;;;;;5154121;27;20117;-78
2022/01/23 16:53:39;;;;;;;6.88;3.70;;;;;;;;;;5154107;27;20051;-78
2022/01/23 16:56:06;;;;;;;8.23;4.20;;;;;;;;;;5135467;27;20050;-79
2022/01/23 16:58:33;;;;;;;8.75;4.60;;;;;;;;;;5153901;27;20073;-79
2022/01/23 17:01:00;;;;;;;8.40;4.45;;;;;;;;;;5154010;27;20065;-78
2022/01/23 17:03:26;;;;;;;8.38;4.18;;;;;;;;;;5135432;27;20103;-77
2022/01/23 17:05:53;;;;;;;7.38;4.22;;;;;;;;;;5153762;27;20038;-80
2022/01/23 17:08:19;;;;;;;6.53;3.22;;;;;;;;;;5135192;27;20512;-80
2022/01/23 17:10:45;;;;;;;6.80;2.90;;;;;;;;;;5153691;27;20121;-80
2022/01/23 17:13:12;;;;;;;6.03;2.42;;;;;;;;;;5135140;27;20059;-79
2022/01/23 17:15:38;;;;;;;6.65;3.45;;;;;;;;;;5153663;27;20047;-74
2022/01/23 17:18:05;;;;;;;7.15;3.67;;;;;;;;;;5153758;27;20052;-74
2022/01/23 17:20:31;;;;;;;5.38;2.78;;;;;;;;;;5153666;27;20142;-79
2022/01/23 17:22:58;;;;;;;5.50;2.40;;;;;;;;;;5156123;27;20085;-80
2022/01/23 17:25:24;;;;;;;5.03;2.40;;;;;;;;;;5139277;27;20537;-79
2022/01/23 17:27:50;;;;;;;5.65;2.30;;;;;;;;;;5157384;27;20099;-79
2022/01/23 17:30:17;;;;;;;7.10;2.90;;;;;;;;;;5157807;27;20087;-80
2022/01/23 17:32:44;;;;;;;6.20;2.75;;;;;;;;;;5157485;27;20039;-80
2022/01/23 17:35:10;;;;;;;5.97;2.67;;;;;;;;;;5157408;27;20046;-79
2022/01/23 17:37:36;;;;;;;6.20;2.95;;;;;;;;;;5157175;27;20034;-80
2022/01/23 17:40:04;;;;;;;6.50;2.95;;;;;;;;;;5138747;27;20552;-78
2022/01/23 17:42:30;;;;;;;5.88;3.28;;;;;;;;;;5157191;27;20487;-78
2022/01/23 17:44:56;;;;;;;6.85;3.70;;;;;;;;;;5121755;27;20540;-79
2022/01/23 17:48:19;;;;;;;6.32;3.90;;;;;;;;;;5157308;27;20047;-79
2022/01/23 17:50:21;;;;;;;7.35;3.80;;;;;;;;;;5145729;27;20051;-78
2022/01/23 17:52:50;;;;;;;7.53;3.30;;;;;;;;;;5157084;27;20035;-78
2022/01/23 17:55:16;;;;;;;7.13;3.88;;;;;;;;;;5157028;27;20117;-77
2022/01/23 17:57:43;;;;;;;6.00;3.70;;;;;;;;;;5157021;27;20042;-78
2022/01/23 18:00:09;;;;;;;7.07;3.97;;;;;;;;;;5156947;27;20049;-78
2022/01/23 18:02:36;;;;;;;6.35;3.58;;;;;;;;;;5156902;27;20433;-79
2022/01/23 18:05:04;;;;;;;5.80;2.90;;;;;;;;;;5157010;27;20042;-79
2022/01/23 18:07:31;;;;;;;5.57;2.88;;;;;;;;;;5156611;27;20038;-79
2022/01/23 18:09:58;;;;;;;7.47;3.05;;;;;;;;;;5156961;27;20078;-78
2022/01/23 18:12:28;;;;;;;5.90;3.10;;;;;;;;;;5156516;27;20049;-79
2022/01/23 18:14:54;;;;;;;7.65;2.90;;;;;;;;;;5156586;27;20051;-78
2022/01/23 18:17:21;;;;;;;6.00;2.63;;;;;;;;;;5138133;27;20043;-79